Time;durP1;ratioP1;P1;durP2;ratioP2;P2;SDS_P1;SDS_P2;PMS_P1;PMS_P2;Temp;Humidity;BMP_temperature;BMP_pressure;BME280_temperature;BME280_humidity;BME280_pressure;Samples;Min_cycle;Max_cycle;Signal;HPM_P1;HPM_P2
2023/04/01 00:00:55;;;;;;;2.78;0.90;;;7.30;98.00;;;;;;5085946;28;20030;-67
2023/04/01 00:03:22;;;;;;;2.83;0.95;;;7.40;98.00;;;;;;5087519;28;20330;-65
2023/04/01 00:05:49;;;;;;;4.05;0.85;;;7.40;97.60;;;;;;5082168;28;20029;-66
2023/04/01 00:08:15;;;;;;;3.08;1.00;;;7.30;97.80;;;;;;5066322;28;20185;-66
2023/04/01 00:10:40;;;;;;;2.25;0.88;;;7.20;97.60;;;;;;5083915;28;20016;-66
2023/04/01 00:13:06;;;;;;;2.80;1.08;;;7.10;97.20;;;;;;5073610;28;20426;-66
2023/04/01 00:15:33;;;;;;;5.65;1.50;;;7.10;97.80;;;;;;5086124;28;20572;-66
2023/04/01 00:17:58;;;;;;;5.03;1.10;;;7.20;98.00;;;;;;5077948;28;20317;-66
2023/04/01 00:20:25;;;;;;;5.05;1.13;;;7.30;98.00;;;;;;5082218;28;20024;-66
2023/04/01 00:22:53;;;;;;;4.20;1.00;;;7.40;98.00;;;;;;5091678;28;20062;-66
2023/04/01 00:25:19;;;;;;;5.47;1.20;;;7.50;97.90;;;;;;5055261;28;20075;-66
2023/04/01 00:27:45;;;;;;;6.72;1.30;;;7.40;97.80;;;;;;5055809;28;21395;-66
2023/04/01 00:30:11;;;;;;;3.55;0.95;;;7.40;97.80;;;;;;5057448;28;20093;-66
2023/04/01 00:32:37;;;;;;;4.60;0.98;;;7.30;97.80;;;;;;5056348;28;20032;-66
2023/04/01 00:35:03;;;;;;;3.35;1.10;;;7.30;97.40;;;;;;5056974;28;20059;-67
2023/04/01 00:37:29;;;;;;;4.68;1.40;;;7.20;97.30;;;;;;5056432;28;20028;-66
2023/04/01 00:39:55;;;;;;;4.30;1.25;;;7.10;97.30;;;;;;5057166;28;20024;-66
2023/04/01 00:42:20;;;;;;;5.95;1.40;;;7.10;96.70;;;;;;5057078;28;20036;-66
2023/04/01 00:44:51;;;;;;;3.55;1.00;;;7.10;96.60;;;;;;5055320;28;20032;-66
2023/04/01 00:47:17;;;;;;;2.13;0.90;;;7.00;97.00;;;;;;5070060;28;20025;-66
2023/04/01 00:49:48;;;;;;;3.15;1.05;;;7.00;96.60;;;;;;5057540;28;20033;-66
2023/04/01 00:52:17;;;;;;;4.13;1.00;;;6.90;96.70;;;;;;5073401;28;20033;-66
2023/04/01 00:54:47;;;;;;;2.78;0.95;;;6.90;97.40;;;;;;5078230;28;20135;-66
2023/04/01 00:57:23;;;;;;;2.75;1.00;;;7.10;97.80;;;;;;5076936;28;20051;-66
2023/04/01 00:59:52;;;;;;;3.40;1.00;;;7.20;98.00;;;;;;5086238;28;20092;-65
2023/04/01 01:02:18;;;;;;;2.40;0.90;;;7.20;97.80;;;;;;5077575;28;20052;-66
2023/04/01 01:04:44;;;;;;;3.67;1.10;;;7.10;97.80;;;;;;5079458;28;20074;-65
2023/04/01 01:07:35;;;;;;;4.82;1.38;;;7.10;98.00;;;;;;5071369;28;20112;-65
2023/04/01 01:10:22;;;;;;;2.45;0.75;;;7.10;98.00;;;;;;5088368;28;20317;-65
2023/04/01 01:13:25;;;;;;;1.33;0.80;;;7.10;98.00;;;;;;5081335;28;20123;-65
2023/04/01 01:16:06;;;;;;;1.63;0.80;;;7.10;97.80;;;;;;5080081;28;20417;-65
2023/04/01 01:18:37;;;;;;;2.42;0.90;;;7.10;97.80;;;;;;5084026;28;20029;-66
2023/04/01 01:21:21;;;;;;;4.88;0.70;;;7.00;97.60;;;;;;5080620;28;20298;-67
2023/04/01 01:23:58;;;;;;;2.60;0.75;;;7.00;98.00;;;;;;5067937;28;20424;-66
2023/04/01 01:26:39;;;;;;;3.20;0.70;;;6.90;98.00;;;;;;5077881;28;20036;-66
2023/04/01 01:29:26;;;;;;;2.00;0.70;;;6.90;97.90;;;;;;5072570;28;20032;-66
2023/04/01 01:31:51;;;;;;;3.25;0.70;;;6.80;98.00;;;;;;5068513;28;20563;-66
2023/04/01 01:34:20;;;;;;;1.88;0.70;;;6.80;98.00;;;;;;5083546;28;20102;-66
2023/04/01 01:36:58;;;;;;;1.85;0.70;;;6.80;97.90;;;;;;5081507;28;20039;-66
2023/04/01 01:39:29;;;;;;;0.60;0.52;;;6.80;98.00;;;;;;5079251;28;20027;-66
2023/04/01 01:41:58;;;;;;;0.90;0.60;;;6.80;98.00;;;;;;5078577;28;20028;-66
2023/04/01 01:44:27;;;;;;;2.30;0.70;;;6.90;98.00;;;;;;5084834;28;20367;-66
2023/04/01 01:46:53;;;;;;;0.73;0.70;;;6.90;98.00;;;;;;5079184;28;20321;-66
2023/04/01 01:49:19;;;;;;;1.27;0.70;;;7.10;98.00;;;;;;5087888;28;20028;-66
2023/04/01 01:51:45;;;;;;;1.48;0.70;;;7.10;97.80;;;;;;5084970;28;20047;-66
2023/04/01 01:54:16;;;;;;;1.27;0.63;;;7.00;97.80;;;;;;5078575;28;20353;-66
2023/04/01 01:56:46;;;;;;;1.98;0.80;;;7.00;97.90;;;;;;5080298;28;20081;-66
2023/04/01 01:59:15;;;;;;;0.90;0.70;;;6.90;98.00;;;;;;5088439;28;20028;-66
2023/04/01 02:01:46;;;;;;;2.13;0.80;;;6.80;97.90;;;;;;5074399;28;20028;-65
2023/04/01 02:04:14;;;;;;;1.23;0.70;;;6.80;97.90;;;;;;5086707;28;20029;-65
2023/04/01 02:06:46;;;;;;;2.28;0.80;;;6.80;97.90;;;;;;5081611;28;20027;-66
2023/04/01 02:09:12;;;;;;;1.75;0.80;;;6.70;97.70;;;;;;5083343;28;20420;-66
2023/04/01 02:12:03;;;;;;;3.25;0.80;;;6.80;97.90;;;;;;5080090;28;20153;-65
2023/04/01 02:14:41;;;;;;;1.27;0.70;;;6.90;97.80;;;;;;5073246;28;20108;-66
2023/04/01 02:17:22;;;;;;;1.42;0.70;;;6.80;98.00;;;;;;5085800;28;20036;-66
2023/04/01 02:19:56;;;;;;;3.05;1.35;;;6.70;97.70;;;;;;5082435;28;20368;-66
2023/04/01 02:22:34;;;;;;;3.40;0.73;;;6.60;97.30;;;;;;5082387;28;20028;-66
2023/04/01 02:25:07;;;;;;;3.08;0.82;;;6.50;97.40;;;;;;5078333;28;21329;-65
2023/04/01 02:27:33;;;;;;;1.90;0.80;;;6.50;97.00;;;;;;5076687;28;20044;-65
2023/04/01 02:29:59;;;;;;;2.60;0.80;;;6.50;97.20;;;;;;5081093;28;20046;-66
2023/04/01 02:32:26;;;;;;;2.28;0.77;;;6.50;96.20;;;;;;5078041;28;20111;-66
2023/04/01 02:34:52;;;;;;;1.25;0.70;;;6.50;96.60;;;;;;5086555;28;20310;-66
2023/04/01 02:37:18;;;;;;;2.38;0.80;;;6.40;96.10;;;;;;5081570;28;20046;-66
2023/04/01 02:39:44;;;;;;;1.33;0.68;;;6.30;95.10;;;;;;5082245;28;20032;-66
2023/04/01 02:42:10;;;;;;;2.05;0.70;;;6.20;95.90;;;;;;5073997;28;20033;-66
2023/04/01 02:44:36;;;;;;;0.90;0.70;;;6.10;94.80;;;;;;5083282;28;20023;-66
2023/04/01 02:47:02;;;;;;;1.35;0.70;;;6.00;94.50;;;;;;5086612;28;20123;-66
2023/04/01 02:49:28;;;;;;;1.20;0.70;;;5.80;92.90;;;;;;5080398;28;20037;-66
2023/04/01 02:51:53;;;;;;;0.63;0.63;;;5.70;93.60;;;;;;5077333;28;20426;-66
2023/04/01 02:54:19;;;;;;;1.35;0.70;;;5.60;91.60;;;;;;5096766;28;20040;-67
2023/04/01 02:56:45;;;;;;;1.52;0.80;;;5.50;91.10;;;;;;5082910;28;20119;-66
2023/04/01 02:59:11;;;;;;;1.35;0.77;;;5.50;92.40;;;;;;5090203;28;20111;-67
2023/04/01 03:01:37;;;;;;;1.58;0.80;;;5.40;91.60;;;;;;5079807;28;20420;-67
2023/04/01 03:04:03;;;;;;;0.73;0.70;;;5.40;90.80;;;;;;5086976;28;20048;-67
2023/04/01 03:06:29;;;;;;;1.67;0.80;;;5.30;92.80;;;;;;5075543;28;20032;-67
2023/04/01 03:08:54;;;;;;;0.60;0.60;;;5.30;91.10;;;;;;5078624;28;20025;-68
2023/04/01 03:11:21;;;;;;;0.90;0.70;;;5.20;89.40;;;;;;5077816;28;20035;-67
2023/04/01 03:13:46;;;;;;;1.38;0.68;;;5.10;89.70;;;;;;5074068;28;20033;-68
2023/04/01 03:16:12;;;;;;;1.05;0.80;;;5.10;87.50;;;;;;5093945;28;20028;-67
2023/04/01 03:18:38;;;;;;;2.88;0.80;;;5.10;86.80;;;;;;5071398;28;20028;-67
2023/04/01 03:21:17;;;;;;;1.55;0.80;;;5.10;87.60;;;;;;5085220;28;20024;-67
2023/04/01 03:23:43;;;;;;;1.17;0.90;;;5.00;85.90;;;;;;5084382;28;20016;-67
2023/04/01 03:26:08;;;;;;;1.20;0.90;;;5.00;84.90;;;;;;5083955;28;20032;-67
2023/04/01 03:28:35;;;;;;;1.63;0.90;;;5.00;85.70;;;;;;5082731;28;20036;-67
2023/04/01 03:31:00;;;;;;;2.33;1.00;;;4.90;85.20;;;;;;5085385;28;20325;-67
2023/04/01 03:33:26;;;;;;;1.55;0.80;;;4.80;84.30;;;;;;5094061;28;20032;-66
2023/04/01 03:35:52;;;;;;;6.38;0.90;;;4.70;84.70;;;;;;5079816;28;20032;-67
2023/04/01 03:38:18;;;;;;;2.47;0.90;;;4.60;84.20;;;;;;5082205;28;21551;-66
2023/04/01 03:40:44;;;;;;;1.23;0.82;;;4.70;86.10;;;;;;5081896;28;20050;-67
2023/04/01 03:43:10;;;;;;;2.67;1.30;;;5.00;89.10;;;;;;5078676;28;20025;-67
2023/04/01 03:45:36;;;;;;;4.03;1.10;;;5.10;89.50;;;;;;5082269;28;20028;-67
2023/04/01 03:48:02;;;;;;;2.40;1.00;;;5.10;89.40;;;;;;5081928;28;20047;-66
2023/04/01 03:50:27;;;;;;;3.35;1.25;;;5.20;88.40;;;;;;5081529;28;20024;-66
2023/04/01 03:52:53;;;;;;;2.60;0.88;;;5.30;89.40;;;;;;5084785;28;20028;-66
2023/04/01 03:55:18;;;;;;;4.32;1.27;;;5.30;90.50;;;;;;5073355;28;20045;-66
2023/04/01 03:57:44;;;;;;;3.63;1.27;;;5.40;90.80;;;;;;5058432;28;20049;-67
2023/04/01 04:00:10;;;;;;;2.90;1.10;;;5.50;92.00;;;;;;5063271;28;20024;-66
2023/04/01 04:02:36;;;;;;;5.70;1.10;;;5.50;92.00;;;;;;5063158;28;20127;-65
2023/04/01 04:05:02;;;;;;;5.60;1.30;;;5.50;92.40;;;;;;5076771;28;20112;-66
2023/04/01 04:07:27;;;;;;;5.57;1.38;;;5.60;93.00;;;;;;5083388;28;20024;-66
2023/04/01 04:09:53;;;;;;;4.82;1.13;;;5.60;92.80;;;;;;5084329;28;20350;-66
2023/04/01 04:12:18;;;;;;;5.80;1.98;;;5.60;94.50;;;;;;5082369;28;20086;-68
2023/04/01 04:14:44;;;;;;;4.72;1.15;;;5.70;94.20;;;;;;5082938;28;20073;-67
2023/04/01 04:17:15;;;;;;;5.78;1.05;;;5.70;94.90;;;;;;5082061;28;20034;-67
2023/04/01 04:19:42;;;;;;;3.85;1.23;;;5.70;94.00;;;;;;5073896;28;20033;-67
2023/04/01 04:22:07;;;;;;;4.40;1.35;;;5.80;95.50;;;;;;5074414;28;20020;-67
2023/04/01 04:24:36;;;;;;;8.35;2.05;;;5.90;96.10;;;;;;5077799;28;20095;-67
2023/04/01 04:27:03;;;;;;;2.85;1.00;;;5.80;95.40;;;;;;5074977;28;20028;-66
2023/04/01 04:29:29;;;;;;;4.60;1.30;;;5.90;95.90;;;;;;5074212;28;20078;-66
2023/04/01 04:31:55;;;;;;;2.83;0.93;;;5.90;95.50;;;;;;5076016;28;20344;-66
2023/04/01 04:34:22;;;;;;;2.50;1.00;;;5.90;95.80;;;;;;5085886;28;20020;-67
2023/04/01 04:36:48;;;;;;;2.90;0.80;;;5.90;96.80;;;;;;5088226;28;20439;-66
2023/04/01 04:39:14;;;;;;;2.15;0.90;;;6.00;96.50;;;;;;5079499;28;20078;-66
2023/04/01 04:41:40;;;;;;;5.18;1.00;;;6.00;96.30;;;;;;5086756;28;20355;-66
2023/04/01 04:44:05;;;;;;;2.20;0.80;;;6.00;96.80;;;;;;5079750;28;20036;-67
2023/04/01 04:46:31;;;;;;;2.40;0.80;;;5.90;96.30;;;;;;5074787;28;20033;-66
2023/04/01 04:48:56;;;;;;;4.15;1.00;;;6.00;96.80;;;;;;5078413;28;20058;-66
2023/04/01 04:51:23;;;;;;;2.80;0.93;;;5.90;96.80;;;;;;5070552;28;20056;-66
2023/04/01 04:53:49;;;;;;;0.77;0.70;;;5.90;96.80;;;;;;5075682;28;20051;-66
2023/04/01 04:56:19;;;;;;;2.58;0.82;;;5.90;97.50;;;;;;5076453;28;20090;-66
2023/04/01 04:58:46;;;;;;;2.95;1.00;;;6.00;98.00;;;;;;5079678;28;20036;-66
2023/04/01 05:01:14;;;;;;;2.25;0.85;;;6.10;98.00;;;;;;5087961;28;20028;-66
2023/04/01 05:03:40;;;;;;;1.48;0.80;;;6.10;98.00;;;;;;5078614;28;20024;-66
2023/04/01 05:06:07;;;;;;;2.10;0.90;;;6.20;98.00;;;;;;5079249;28;20036;-66
2023/04/01 05:08:33;;;;;;;2.63;0.80;;;6.20;98.00;;;;;;5085371;28;20149;-66
2023/04/01 05:11:01;;;;;;;1.58;0.80;;;6.20;98.00;;;;;;5094968;28;20023;-66
2023/04/01 05:13:27;;;;;;;2.80;0.80;;;6.40;98.00;;;;;;5071559;28;20116;-66
2023/04/01 05:15:53;;;;;;;3.50;0.88;;;6.40;98.00;;;;;;5080482;28;20027;-66
2023/04/01 05:18:18;;;;;;;1.88;0.90;;;6.50;98.00;;;;;;5072085;28;20317;-66
2023/04/01 05:20:52;;;;;;;4.40;1.25;;;6.50;98.00;;;;;;5083349;27;20031;-66
2023/04/01 05:23:20;;;;;;;2.00;0.80;;;6.50;98.00;;;;;;5074376;28;20020;-66
2023/04/01 05:25:46;;;;;;;2.47;0.70;;;6.50;98.00;;;;;;5082681;28;20028;-66
2023/04/01 05:28:12;;;;;;;2.20;0.80;;;6.60;98.00;;;;;;5076632;28;20023;-66
2023/04/01 05:30:43;;;;;;;2.88;0.80;;;6.60;98.00;;;;;;5082370;28;20024;-66
2023/04/01 05:33:09;;;;;;;2.13;0.80;;;6.70;98.00;;;;;;5089906;28;20099;-66
2023/04/01 05:35:35;;;;;;;2.05;0.73;;;6.70;98.00;;;;;;5076319;28;20257;-66
2023/04/01 05:38:01;;;;;;;1.90;0.77;;;6.70;98.00;;;;;;5079605;28;20119;-67
2023/04/01 05:40:28;;;;;;;2.58;0.80;;;6.80;98.00;;;;;;5079891;28;20036;-67
2023/04/01 05:42:54;;;;;;;3.10;0.82;;;6.80;98.00;;;;;;5076577;28;20074;-66
2023/04/01 05:45:19;;;;;;;5.65;1.05;;;7.00;97.50;;;;;;5081278;28;20382;-66
2023/04/01 05:47:45;;;;;;;2.45;0.90;;;7.10;97.30;;;;;;5082996;28;20034;-68
2023/04/01 05:50:10;;;;;;;3.42;0.90;;;7.10;97.40;;;;;;5080540;28;20029;-66
2023/04/01 05:52:37;;;;;;;3.58;0.90;;;7.10;97.40;;;;;;5081198;28;20031;-67
2023/04/01 05:55:03;;;;;;;2.83;0.80;;;7.00;97.60;;;;;;5079407;28;20418;-67
2023/04/01 05:57:29;;;;;;;2.70;0.80;;;7.00;97.80;;;;;;5081077;28;20114;-66
2023/04/01 05:59:55;;;;;;;2.38;0.85;;;7.00;98.00;;;;;;5080581;28;20073;-67
2023/04/01 06:02:20;;;;;;;3.40;0.85;;;7.10;97.80;;;;;;5078191;28;20024;-66
2023/04/01 06:04:46;;;;;;;3.15;1.10;;;7.20;97.50;;;;;;5090242;28;20021;-67
2023/04/01 06:07:14;;;;;;;9.90;0.93;;;7.30;97.60;;;;;;5080416;28;20036;-66
2023/04/01 06:09:40;;;;;;;3.08;1.08;;;7.30;97.60;;;;;;5081843;28;20151;-67
2023/04/01 06:12:27;;;;;;;3.88;1.17;;;7.40;97.10;;;;;;5082627;28;21357;-67
2023/04/01 06:15:21;;;;;;;2.95;0.90;;;7.40;97.10;;;;;;5089256;28;20028;-67
2023/04/01 06:18:23;;;;;;;2.28;0.98;;;7.40;97.00;;;;;;5082086;28;20024;-67
2023/04/01 06:21:04;;;;;;;2.38;0.85;;;7.40;97.30;;;;;;5085928;28;20024;-67
2023/04/01 06:23:49;;;;;;;2.08;0.90;;;7.40;97.10;;;;;;5083904;28;20480;-66
2023/04/01 06:26:35;;;;;;;3.20;0.90;;;7.40;97.00;;;;;;5076381;28;20071;-67
2023/04/01 06:29:27;;;;;;;2.55;0.88;;;7.50;96.40;;;;;;5084518;28;20085;-67
2023/04/01 06:32:04;;;;;;;2.30;1.23;;;7.50;96.90;;;;;;5087914;28;20024;-66
2023/04/01 06:34:44;;;;;;;3.08;0.90;;;7.50;96.40;;;;;;5079558;28;20052;-66
2023/04/01 06:37:42;;;;;;;1.42;0.77;;;7.50;96.30;;;;;;5088439;28;20033;-67
2023/04/01 06:40:20;;;;;;;1.63;0.80;;;7.60;96.30;;;;;;5086179;28;20044;-67
2023/04/01 06:42:49;;;;;;;3.60;1.13;;;7.60;96.30;;;;;;5084021;28;20024;-67
2023/04/01 06:45:34;;;;;;;1.67;0.75;;;7.70;96.10;;;;;;5074900;28;20060;-67
2023/04/01 06:48:25;;;;;;;2.72;0.90;;;7.70;96.30;;;;;;5077082;28;20084;-67
2023/04/01 06:51:22;;;;;;;2.97;0.85;;;7.80;96.10;;;;;;5084759;28;20503;-67
2023/04/01 06:54:00;;;;;;;4.35;1.30;;;7.80;95.80;;;;;;5076066;28;20107;-66
2023/04/01 06:56:28;;;;;;;2.03;0.90;;;7.80;96.00;;;;;;5093050;28;20036;-66
2023/04/01 06:59:19;;;;;;;5.20;0.90;;;7.90;95.50;;;;;;5078119;28;20051;-66
2023/04/01 07:01:50;;;;;;;4.30;0.90;;;7.90;95.70;;;;;;5084203;28;20041;-66
2023/04/01 07:04:32;;;;;;;6.53;1.25;;;7.90;95.60;;;;;;5086727;28;20024;-66
2023/04/01 07:07:08;;;;;;;3.63;1.15;;;8.00;95.60;;;;;;5091953;28;20031;-68
2023/04/01 07:09:43;;;;;;;2.83;1.27;;;8.00;95.70;;;;;;5090984;28;20028;-67
2023/04/01 07:12:27;;;;;;;3.05;0.90;;;8.00;95.90;;;;;;5085207;28;20134;-68
2023/04/01 07:14:53;;;;;;;;;;;8.10;95.90;;;;;;5084618;28;20024;-67
2023/04/01 07:17:27;;;;;;;3.20;0.70;;;8.10;95.50;;;;;;5087370;28;20324;-67
2023/04/01 07:19:56;;;;;;;2.70;1.00;;;8.00;95.50;;;;;;5090648;28;20032;-67
2023/04/01 07:22:31;;;;;;;5.60;0.93;;;8.10;95.70;;;;;;5087495;28;20119;-67
2023/04/01 07:25:01;;;;;;;2.97;1.00;;;8.10;95.70;;;;;;5083664;28;20032;-67
2023/04/01 07:27:27;;;;;;;2.72;1.10;;;8.10;95.20;;;;;;5081609;28;20039;-67
2023/04/01 07:29:55;;;;;;;2.17;0.77;;;8.20;95.30;;;;;;5082475;28;20033;-66
2023/04/01 07:32:42;;;;;;;2.33;0.90;;;8.10;95.30;;;;;;5092566;28;20032;-66
2023/04/01 07:36:04;;;;;;;2.67;0.80;;;8.10;94.80;;;;;;5088813;28;20060;-66
2023/04/01 07:38:50;;;;;;;3.83;1.20;;;8.20;94.90;;;;;;5068741;28;20029;-67
2023/04/01 07:41:15;;;;;;;1.83;0.70;;;8.20;94.80;;;;;;5064697;28;20456;-67
2023/04/01 07:43:44;;;;;;;3.03;1.10;;;8.20;93.90;;;;;;5082865;28;20083;-67
2023/04/01 07:46:16;;;;;;;1.80;0.70;;;8.20;94.40;;;;;;5081696;28;20024;-66
2023/04/01 07:49:00;;;;;;;2.08;0.80;;;8.30;94.30;;;;;;5088249;28;20043;-66
2023/04/01 07:51:26;;;;;;;;;;;8.30;94.10;;;;;;5087135;28;20325;-66
2023/04/01 07:54:21;;;;;;;2.30;0.80;;;8.30;94.50;;;;;;5081804;28;19909;-66
2023/04/01 07:57:00;;;;;;;3.83;0.90;;;8.40;94.30;;;;;;5087324;28;20041;-66
2023/04/01 08:00:04;;;;;;;0.95;0.70;;;8.50;93.50;;;;;;5080812;28;20482;-66
2023/04/01 08:02:32;;;;;;;1.35;0.70;;;8.40;93.30;;;;;;5090344;28;20028;-66
2023/04/01 08:05:19;;;;;;;1.40;0.80;;;8.20;94.40;;;;;;5090261;28;20028;-66
2023/04/01 08:07:51;;;;;;;3.63;0.90;;;8.20;94.00;;;;;;5081792;28;20073;-66
2023/04/01 08:10:50;;;;;;;1.20;0.70;;;8.10;94.20;;;;;;5097576;28;20024;-66
2023/04/01 08:14:00;;;;;;;1.23;0.70;;;8.20;94.00;;;;;;5089443;28;20017;-66
2023/04/01 08:16:34;;;;;;;1.05;0.70;;;8.20;94.10;;;;;;5069450;28;20068;-66
2023/04/01 08:19:15;;;;;;;1.83;0.70;;;8.20;94.10;;;;;;5072273;28;20099;-66
2023/04/01 08:21:49;;;;;;;2.58;0.70;;;8.20;94.00;;;;;;5078803;28;20063;-66
2023/04/01 08:24:30;;;;;;;2.97;1.00;;;8.20;94.00;;;;;;5082448;28;20028;-66
2023/04/01 08:27:01;;;;;;;2.03;0.90;;;8.20;94.40;;;;;;5078706;28;20032;-66
2023/04/01 08:29:50;;;;;;;1.48;0.80;;;8.20;94.10;;;;;;5087568;28;20592;-66
2023/04/01 08:32:22;;;;;;;2.00;0.82;;;8.20;94.40;;;;;;5078958;28;20027;-66
2023/04/01 08:34:52;;;;;;;2.13;0.70;;;8.30;94.50;;;;;;5091135;28;20020;-66
2023/04/01 08:37:24;;;;;;;1.48;0.70;;;8.50;94.00;;;;;;5083933;28;20028;-67
2023/04/01 08:40:26;;;;;;;1.85;1.13;;;8.50;93.40;;;;;;5092380;28;20070;-66
2023/04/01 08:42:52;;;;;;;0.85;0.70;;;8.60;93.60;;;;;;5076332;28;20093;-67
2023/04/01 08:45:49;;;;;;;2.15;0.70;;;8.50;93.50;;;;;;5078301;28;20363;-66
2023/04/01 08:48:44;;;;;;;1.17;0.60;;;8.40;93.00;;;;;;5083251;28;20091;-66
2023/04/01 08:51:25;;;;;;;2.05;0.77;;;8.40;93.40;;;;;;5077326;28;20032;-66
2023/04/01 08:54:01;;;;;;;1.02;0.70;;;8.40;94.00;;;;;;5078414;28;20028;-66
2023/04/01 08:56:56;;;;;;;1.17;0.70;;;8.40;93.60;;;;;;5080110;28;20367;-66
2023/04/01 08:59:43;;;;;;;2.70;0.90;;;8.30;93.70;;;;;;5087960;28;20345;-66
2023/04/01 09:02:40;;;;;;;1.13;0.90;;;8.30;94.00;;;;;;5092048;28;20024;-67
2023/04/01 09:05:25;;;;;;;2.38;1.15;;;8.30;94.70;;;;;;5088387;28;20040;-66
2023/04/01 09:08:25;;;;;;;1.30;1.00;;;8.30;95.30;;;;;;5085415;28;20028;-66
2023/04/01 09:11:09;;;;;;;0.88;0.70;;;8.30;95.10;;;;;;5076910;28;20024;-66
2023/04/01 09:13:35;;;;;;;1.83;0.90;;;8.20;95.50;;;;;;5089598;28;20036;-66
2023/04/01 09:16:37;;;;;;;1.92;0.88;;;8.20;95.40;;;;;;5077229;28;20421;-67
2023/04/01 09:19:27;;;;;;;2.00;0.88;;;8.20;95.40;;;;;;5083007;28;20024;-66
2023/04/01 09:22:15;;;;;;;1.50;0.80;;;8.30;95.10;;;;;;5088051;28;20432;-66
2023/04/01 09:25:14;;;;;;;2.03;0.90;;;8.40;95.00;;;;;;5088047;28;20036;-66
2023/04/01 09:28:10;;;;;;;2.00;0.95;;;8.60;94.90;;;;;;5082001;28;20024;-66
2023/04/01 09:31:10;;;;;;;2.90;0.95;;;8.70;95.00;;;;;;5083258;28;20028;-66
2023/04/01 09:34:00;;;;;;;1.67;0.70;;;8.70;95.10;;;;;;5077793;28;20032;-67
2023/04/01 09:36:34;;;;;;;2.45;0.80;;;8.60;95.40;;;;;;5081156;28;20040;-66
2023/04/01 09:39:11;;;;;;;1.90;0.80;;;8.50;95.70;;;;;;5084270;28;20027;-67
2023/04/01 09:42:00;;;;;;;1.50;0.70;;;8.30;96.40;;;;;;5076956;28;20016;-67
2023/04/01 09:44:45;;;;;;;1.95;0.90;;;8.30;97.40;;;;;;5050530;28;20037;-65
2023/04/01 09:47:26;;;;;;;2.72;1.20;;;8.30;96.90;;;;;;5078765;28;20065;-64
2023/04/01 09:50:13;;;;;;;3.17;1.10;;;8.40;96.90;;;;;;5094769;28;20024;-64
2023/04/01 09:52:44;;;;;;;2.40;0.77;;;8.50;96.70;;;;;;5080088;28;20028;-63
2023/04/01 09:56:05;;;;;;;2.17;0.80;;;8.40;96.00;;;;;;5076600;28;20025;-65
2023/04/01 09:59:12;;;;;;;0.98;0.70;;;8.10;96.70;;;;;;5081443;28;20447;-64
2023/04/01 10:01:41;;;;;;;2.35;1.10;;;8.30;97.30;;;;;;5077059;28;20036;-66
2023/04/01 10:04:44;;;;;;;1.27;0.75;;;8.60;97.20;;;;;;5079401;28;20047;-65
2023/04/01 10:07:45;;;;;;;2.20;0.90;;;8.70;96.10;;;;;;5079607;28;20033;-65
2023/04/01 10:10:28;;;;;;;3.97;1.50;;;8.60;96.40;;;;;;5103348;28;20423;-66
2023/04/01 10:13:17;;;;;;;2.20;1.00;;;8.60;96.90;;;;;;5097815;28;20028;-67
2023/04/01 10:15:51;;;;;;;1.27;0.70;;;8.60;96.70;;;;;;5077927;28;20086;-66
2023/04/01 10:18:47;;;;;;;1.90;0.70;;;8.20;97.40;;;;;;5079376;28;20021;-66
2023/04/01 10:21:27;;;;;;;2.00;0.85;;;7.90;97.00;;;;;;5068930;28;20028;-66
2023/04/01 10:24:18;;;;;;;2.75;0.70;;;7.70;97.30;;;;;;5077841;28;20320;-65
2023/04/01 10:26:49;;;;;;;1.67;0.60;;;7.60;96.90;;;;;;5088241;28;20432;-65
2023/04/01 10:29:47;;;;;;;1.58;0.70;;;7.60;98.00;;;;;;5077632;28;20028;-65
2023/04/01 10:32:53;;;;;;;1.38;0.80;;;7.60;97.60;;;;;;5078812;28;20043;-65
2023/04/01 10:35:30;;;;;;;1.65;0.70;;;7.60;98.00;;;;;;5081983;28;20048;-65
2023/04/01 10:38:17;;;;;;;1.20;0.73;;;7.80;98.00;;;;;;5095886;28;20020;-65
2023/04/01 10:40:52;;;;;;;0.77;0.60;;;7.90;97.80;;;;;;5096159;28;20031;-66
2023/04/01 10:43:55;;;;;;;2.25;0.60;;;7.80;97.40;;;;;;5078293;28;20024;-66
2023/04/01 10:46:40;;;;;;;0.85;0.63;;;7.80;98.00;;;;;;5081252;28;20158;-66
2023/04/01 10:49:29;;;;;;;2.22;0.90;;;7.90;97.70;;;;;;5086101;28;20047;-66
2023/04/01 10:52:12;;;;;;;2.63;1.00;;;8.10;97.00;;;;;;5095870;28;20024;-65
2023/04/01 10:54:58;;;;;;;1.23;0.70;;;8.30;97.10;;;;;;5083784;28;20028;-65
2023/04/01 10:57:42;;;;;;;0.82;0.68;;;8.30;96.70;;;;;;5065357;28;21981;-66
2023/04/01 11:00:18;;;;;;;0.60;0.60;;;8.20;96.90;;;;;;5060790;28;20032;-66
2023/04/01 11:03:12;;;;;;;3.75;0.90;;;8.30;96.80;;;;;;5059895;28;20055;-66
2023/04/01 11:05:59;;;;;;;1.43;0.80;;;8.60;97.20;;;;;;5063800;28;20028;-65
2023/04/01 11:08:39;;;;;;;7.30;2.92;;;8.80;96.60;;;;;;5061858;28;20294;-65
2023/04/01 11:11:21;;;;;;;0.98;0.70;;;8.90;96.90;;;;;;5067450;28;20032;-65
2023/04/01 11:14:00;;;;;;;1.25;0.63;;;9.10;96.30;;;;;;5066959;28;20385;-66
2023/04/01 11:16:28;;;;;;;2.30;0.70;;;8.80;96.00;;;;;;5066816;28;20028;-66
2023/04/01 11:19:22;;;;;;;3.25;1.20;;;8.70;97.50;;;;;;5071737;28;20025;-65
2023/04/01 11:22:09;;;;;;;1.20;0.70;;;8.80;97.70;;;;;;5071138;28;20025;-66
2023/04/01 11:24:53;;;;;;;1.50;0.70;;;8.80;97.50;;;;;;5073815;28;20028;-66
2023/04/01 11:27:48;;;;;;;;;;;8.80;97.80;;;;;;5099252;28;20043;-65
2023/04/01 11:30:29;;;;;;;2.37;1.13;;;8.60;97.10;;;;;;5070279;28;19966;-66
2023/04/01 11:33:00;;;;;;;1.55;0.75;;;8.50;97.20;;;;;;5067569;28;20028;-66
2023/04/01 11:35:38;;;;;;;2.03;0.80;;;8.50;97.40;;;;;;5066885;28;20116;-65
2023/04/01 11:38:41;;;;;;;1.42;0.70;;;8.30;97.50;;;;;;5078434;28;20168;-67
2023/04/01 11:41:21;;;;;;;2.03;0.73;;;8.00;98.00;;;;;;5080108;28;20025;-66
2023/04/01 11:44:08;;;;;;;1.05;0.70;;;7.90;97.40;;;;;;5072384;28;20642;-66
2023/04/01 11:46:42;;;;;;;1.38;0.80;;;7.90;97.50;;;;;;5069448;28;20345;-66
2023/04/01 11:49:13;;;;;;;;;;;7.80;96.90;;;;;;5075717;28;20020;-66
2023/04/01 11:52:05;;;;;;;2.42;0.80;;;7.90;97.80;;;;;;5070557;28;20259;-66
2023/04/01 11:54:53;;;;;;;0.65;0.65;;;7.90;97.40;;;;;;5061832;28;20356;-66
2023/04/01 11:57:40;;;;;;;1.10;0.70;;;8.10;96.90;;;;;;5059789;28;20046;-65
2023/04/01 12:00:33;;;;;;;1.25;0.60;;;8.40;97.00;;;;;;5052115;28;20044;-66
2023/04/01 12:03:17;;;;;;;3.33;0.90;;;8.40;97.50;;;;;;5053031;28;20091;-66
2023/04/01 12:06:06;;;;;;;1.60;0.70;;;8.30;97.40;;;;;;5047342;28;20029;-67
2023/04/01 12:08:53;;;;;;;0.80;0.68;;;8.20;97.30;;;;;;5049778;28;20029;-67
2023/04/01 12:11:39;;;;;;;1.55;0.70;;;8.30;97.80;;;;;;5048533;28;20028;-67
2023/04/01 12:14:37;;;;;;;2.58;1.00;;;8.50;97.10;;;;;;5045980;28;20737;-67
2023/04/01 12:17:08;;;;;;;1.73;0.88;;;8.50;97.20;;;;;;5057670;28;20033;-67
2023/04/01 12:19:58;;;;;;;4.38;1.60;;;8.30;96.90;;;;;;5061107;28;20032;-67
2023/04/01 12:22:50;;;;;;;3.75;1.42;;;8.00;95.80;;;;;;5056870;28;20888;-67
2023/04/01 12:25:49;;;;;;;11.60;3.92;;;8.00;94.50;;;;;;5066502;28;20040;-67
2023/04/01 12:28:40;;;;;;;9.30;3.28;;;8.00;93.90;;;;;;5075287;28;20029;-67
2023/04/01 12:31:23;;;;;;;4.07;1.80;;;8.00;94.30;;;;;;5074723;28;20030;-67
2023/04/01 12:34:20;;;;;;;2.50;1.27;;;8.00;94.70;;;;;;5067445;28;20025;-67
2023/04/01 12:36:52;;;;;;;2.30;1.00;;;8.00;93.50;;;;;;5063316;28;20796;-67
2023/04/01 12:39:55;;;;;;;2.17;1.00;;;8.00;96.70;;;;;;5064306;28;20086;-67
2023/04/01 12:42:39;;;;;;;2.58;1.10;;;8.00;97.60;;;;;;5067729;28;20028;-66
2023/04/01 12:45:19;;;;;;;2.20;1.10;;;8.00;96.60;;;;;;5065282;28;20432;-65
2023/04/01 12:47:54;;;;;;;1.88;1.00;;;8.00;96.10;;;;;;5075612;28;20274;-65
2023/04/01 12:50:45;;;;;;;3.22;1.10;;;8.10;95.20;;;;;;5068001;28;20020;-65
2023/04/01 12:53:39;;;;;;;3.80;1.70;;;8.10;95.40;;;;;;5068662;28;20178;-65
2023/04/01 12:56:27;;;;;;;2.22;1.02;;;8.20;94.50;;;;;;5071486;28;20177;-67
2023/04/01 12:59:03;;;;;;;2.92;1.00;;;8.20;96.80;;;;;;5073782;28;20032;-67
2023/04/01 13:01:45;;;;;;;3.00;1.10;;;8.40;98.00;;;;;;5084778;28;20016;-65
2023/04/01 13:04:58;;;;;;;1.85;0.90;;;8.70;98.00;;;;;;5083124;28;20031;-66
2023/04/01 13:07:30;;;;;;;1.55;0.88;;;8.90;97.40;;;;;;5069153;28;20119;-66
2023/04/01 13:10:26;;;;;;;4.63;1.20;;;9.20;97.60;;;;;;5070651;28;20024;-66
2023/04/01 13:13:09;;;;;;;1.80;0.98;;;9.30;97.40;;;;;;5065178;28;20039;-65
2023/04/01 13:15:59;;;;;;;3.63;1.03;;;9.20;96.50;;;;;;5064152;28;20067;-66
2023/04/01 13:19:07;;;;;;;2.58;1.13;;;9.20;97.00;;;;;;5070623;28;20032;-66
2023/04/01 13:21:58;;;;;;;1.95;0.82;;;9.50;96.70;;;;;;5067166;28;20341;-65
2023/04/01 13:24:57;;;;;;;2.05;1.10;;;9.50;95.10;;;;;;5067138;28;20507;-66
2023/04/01 13:27:44;;;;;;;3.10;1.08;;;9.30;95.70;;;;;;5072855;28;20078;-65
2023/04/01 13:30:32;;;;;;;1.55;0.90;;;9.30;96.50;;;;;;5080049;28;20034;-65
2023/04/01 13:33:17;;;;;;;1.48;0.80;;;9.30;96.50;;;;;;5080123;28;20107;-65
2023/04/01 13:35:57;;;;;;;2.08;1.00;;;9.20;96.30;;;;;;5090213;28;20027;-65
2023/04/01 13:38:55;;;;;;;1.77;0.80;;;9.00;96.10;;;;;;5073877;28;20335;-65
2023/04/01 13:41:32;;;;;;;1.90;1.05;;;9.00;96.70;;;;;;5069879;28;20402;-65
2023/04/01 13:44:11;;;;;;;2.58;1.17;;;9.20;96.40;;;;;;5086355;28;20020;-65
2023/04/01 13:46:44;;;;;;;1.55;0.70;;;9.30;96.30;;;;;;5075965;28;20040;-65
2023/04/01 13:49:34;;;;;;;2.45;0.93;;;9.20;95.50;;;;;;5089347;28;20070;-65